Time;durP1;ratioP1;P1;durP2;ratioP2;P2;SDS_P1;SDS_P2;PMS_P1;PMS_P2;Temp;Humidity;BMP_temperature;BMP_pressure;BME280_temperature;BME280_humidity;BME280_pressure;Samples;Min_cycle;Max_cycle;Signal;HPM_P1;HPM_P2
2023/03/09 00:00:22;;;;;;;3.30;3.07;;;;;;;;;;6259427;28;20017;-86
2023/03/09 00:03:23;;;;;;;1.88;1.77;;;;;;;;;;6254235;28;20025;-85
2023/03/09 00:06:23;;;;;;;3.43;3.23;;;;;;;;;;6254742;28;20036;-85
2023/03/09 00:09:23;;;;;;;2.43;2.27;;;;;;;;;;6259606;28;20069;-86
2023/03/09 00:12:23;;;;;;;3.30;3.10;;;;;;;;;;6249281;28;20017;-87
2023/03/09 00:15:24;;;;;;;2.47;2.37;;;;;;;;;;6247369;28;20053;-86
2023/03/09 00:18:24;;;;;;;6.40;3.60;;;;;;;;;;6247701;28;20108;-86
2023/03/09 00:21:34;;;;;;;15.13;3.87;;;;;;;;;;6254830;28;20029;-85
2023/03/09 00:24:34;;;;;;;1.67;1.65;;;;;;;;;;6254320;28;20091;-85
2023/03/09 00:27:35;;;;;;;4.90;4.60;;;;;;;;;;6249478;28;20021;-81
2023/03/09 00:30:35;;;;;;;1.30;1.30;;;;;;;;;;6247525;28;20064;-83
2023/03/09 00:33:35;;;;;;;3.87;2.97;;;;;;;;;;6247088;28;20384;-82
2023/03/09 00:36:35;;;;;;;2.87;2.77;;;;;;;;;;6232276;28;20463;-83
2023/03/09 00:39:36;;;;;;;5.40;5.10;;;;;;;;;;6250833;28;20048;-84
2023/03/09 00:42:43;;;;;;;0.83;0.83;;;;;;;;;;6245737;28;20030;-83
2023/03/09 00:45:43;;;;;;;2.08;1.98;;;;;;;;;;6246935;28;20021;-86
2023/03/09 00:48:45;;;;;;;2.80;2.60;;;;;;;;;;6246062;28;20032;-86
2023/03/09 00:51:45;;;;;;;;;;;;;;;;;;6248225;28;20062;-86
2023/03/09 00:54:45;;;;;;;1.05;1.05;;;;;;;;;;6229580;28;20278;-86
2023/03/09 00:57:45;;;;;;;2.07;1.77;;;;;;;;;;6246025;28;20041;-85
2023/03/09 01:00:47;;;;;;;7.18;4.38;;;;;;;;;;6245306;28;20104;-85
2023/03/09 01:03:47;;;;;;;1.50;1.35;;;;;;;;;;6236981;28;20017;-84
2023/03/09 01:06:48;;;;;;;2.57;2.40;;;;;;;;;;6240473;28;20045;-85
2023/03/09 01:09:50;;;;;;;18.73;3.70;;;;;;;;;;6247991;28;20104;-84
2023/03/09 01:12:50;;;;;;;1.48;1.20;;;;;;;;;;6237244;28;20044;-83
2023/03/09 01:15:52;;;;;;;1.43;1.43;;;;;;;;;;6226337;28;20028;-84
2023/03/09 01:18:52;;;;;;;;;;;;;;;;;;6244416;28;20100;-84
2023/03/09 01:21:52;;;;;;;2.35;1.77;;;;;;;;;;6248035;28;20397;-88
2023/03/09 01:24:52;;;;;;;1.60;1.50;;;;;;;;;;6234872;28;20018;-86
2023/03/09 01:27:53;;;;;;;1.70;1.37;;;;;;;;;;6252418;28;20032;-88
2023/03/09 01:30:53;;;;;;;1.87;1.70;;;;;;;;;;6250409;28;20016;-85
2023/03/09 01:33:53;;;;;;;1.08;1.08;;;;;;;;;;6245897;28;20018;-88
2023/03/09 01:36:53;;;;;;;2.00;1.90;;;;;;;;;;6248932;28;20383;-83
2023/03/09 01:39:53;;;;;;;0.30;0.30;;;;;;;;;;6229221;28;20025;-85
2023/03/09 01:43:01;;;;;;;1.88;1.77;;;;;;;;;;6246228;28;20041;-85
2023/03/09 01:46:16;;;;;;;3.38;3.13;;;;;;;;;;6244964;28;20025;-82
2023/03/09 01:49:28;;;;;;;3.78;3.08;;;;;;;;;;6240984;28;20037;-87
2023/03/09 01:52:30;;;;;;;0.82;0.82;;;;;;;;;;6243191;28;20021;-88
2023/03/09 01:55:32;;;;;;;3.58;1.70;;;;;;;;;;6249679;28;20025;-90
2023/03/09 01:58:32;;;;;;;3.00;1.45;;;;;;;;;;6245991;28;20033;-91
2023/03/09 02:01:33;;;;;;;5.30;4.57;;;;;;;;;;6245850;28;20033;-78
2023/03/09 02:07:45;;;;;;;2.25;2.10;;;;;;;;;;6523649;23;20053;-88
2023/03/09 02:10:50;;;;;;;2.30;2.10;;;;;;;;;;6239751;28;20424;-86
2023/03/09 02:13:51;;;;;;;2.40;2.15;;;;;;;;;;6237138;28;20475;-89
2023/03/09 02:16:52;;;;;;;0.60;0.60;;;;;;;;;;6240368;28;20044;-89
2023/03/09 02:20:11;;;;;;;1.50;1.40;;;;;;;;;;6223614;28;20017;-89
2023/03/09 02:23:33;;;;;;;2.53;2.38;;;;;;;;;;6238437;28;20025;-90
2023/03/09 02:26:33;;;;;;;1.92;1.83;;;;;;;;;;6233353;28;20476;-89
2023/03/09 02:29:34;;;;;;;6.47;2.67;;;;;;;;;;6236528;28;20032;-89
2023/03/09 02:32:34;;;;;;;2.13;1.23;;;;;;;;;;6244519;28;20029;-90
2023/03/09 02:35:35;;;;;;;0.77;0.77;;;;;;;;;;6230421;28;20022;-88
2023/03/09 02:38:35;;;;;;;1.50;1.20;;;;;;;;;;6245466;28;20026;-88
2023/03/09 02:41:35;;;;;;;1.97;1.83;;;;;;;;;;6257100;28;20026;-89
2023/03/09 02:44:36;;;;;;;9.63;3.53;;;;;;;;;;6258599;28;20044;-90
2023/03/09 02:47:38;;;;;;;2.50;2.33;;;;;;;;;;6244663;28;20476;-91
2023/03/09 02:50:39;;;;;;;1.08;1.05;;;;;;;;;;6217350;28;20088;-91
2023/03/09 02:53:39;;;;;;;0.93;0.93;;;;;;;;;;6217817;28;20025;-88
2023/03/09 02:56:39;;;;;;;2.73;2.60;;;;;;;;;;6235236;28;20435;-90
2023/03/09 02:59:39;;;;;;;0.67;0.67;;;;;;;;;;6221636;28;20467;-90
2023/03/09 03:02:40;;;;;;;6.83;2.70;;;;;;;;;;6232305;28;20025;-89
2023/03/09 03:05:41;;;;;;;1.03;1.03;;;;;;;;;;6241566;28;20033;-88
2023/03/09 03:08:41;;;;;;;2.72;2.55;;;;;;;;;;6218594;28;20064;-91
2023/03/09 03:11:41;;;;;;;2.80;2.33;;;;;;;;;;6223664;28;20022;-88
2023/03/09 03:14:42;;;;;;;9.67;6.00;;;;;;;;;;6219888;28;20018;-88
2023/03/09 03:17:42;;;;;;;1.57;1.50;;;;;;;;;;6223870;28;20077;-88
2023/03/09 03:20:43;;;;;;;0.63;0.63;;;;;;;;;;6216935;28;20018;-88
2023/03/09 03:23:43;;;;;;;3.83;3.40;;;;;;;;;;6206488;28;20029;-90
2023/03/09 03:26:44;;;;;;;0.73;0.73;;;;;;;;;;6220430;28;20027;-94
2023/03/09 03:29:45;;;;;;;;;;;;;;;;;;6237831;28;20120;-90
2023/03/09 03:32:46;;;;;;;5.32;2.78;;;;;;;;;;6238867;28;19894;-90
2023/03/09 04:10:58;;;;;;;3.13;2.92;;;;;;;;;;6267726;28;20083;-85
2023/03/09 04:13:58;;;;;;;4.13;1.77;;;;;;;;;;6259271;28;20394;-84
2023/03/09 04:16:58;;;;;;;3.47;2.83;;;;;;;;;;6270311;28;20016;-84
2023/03/09 04:19:58;;;;;;;5.53;3.40;;;;;;;;;;6269328;28;20013;-85
2023/03/09 04:22:59;;;;;;;3.20;3.00;;;;;;;;;;6273408;28;20021;-85
2023/03/09 04:26:00;;;;;;;2.73;2.53;;;;;;;;;;6273042;28;20558;-84
2023/03/09 04:29:01;;;;;;;1.13;1.13;;;;;;;;;;6253967;28;20067;-84
2023/03/09 04:32:02;;;;;;;0.73;0.73;;;;;;;;;;6272884;28;20013;-85
2023/03/09 04:35:04;;;;;;;5.90;5.37;;;;;;;;;;6271206;28;20009;-83
2023/03/09 04:38:04;;;;;;;11.88;10.52;;;;;;;;;;6278245;28;20021;-83
2023/03/09 04:41:05;;;;;;;4.72;3.72;;;;;;;;;;6267987;28;20489;-84
2023/03/09 04:44:05;;;;;;;3.20;2.97;;;;;;;;;;6271035;28;20025;-84
2023/03/09 04:47:06;;;;;;;5.20;3.43;;;;;;;;;;6253390;28;20104;-83
2023/03/09 04:50:07;;;;;;;1.03;1.03;;;;;;;;;;6271470;28;20028;-84
2023/03/09 04:53:07;;;;;;;0.93;0.93;;;;;;;;;;6267122;28;20044;-84
2023/03/09 04:56:07;;;;;;;1.40;1.30;;;;;;;;;;6270803;28;20142;-84
2023/03/09 04:59:07;;;;;;;0.17;0.17;;;;;;;;;;6265195;28;20025;-83
2023/03/09 05:02:07;;;;;;;2.27;2.17;;;;;;;;;;6269953;28;20021;-83
2023/03/09 05:05:08;;;;;;;1.75;1.65;;;;;;;;;;6266371;28;20131;-84
2023/03/09 05:08:08;;;;;;;0.23;0.23;;;;;;;;;;6237615;28;20034;-83
2023/03/09 05:11:09;;;;;;;1.27;1.27;;;;;;;;;;6239359;28;20029;-83
2023/03/09 05:14:09;;;;;;;1.60;1.10;;;;;;;;;;6255312;28;20021;-83
2023/03/09 05:17:09;;;;;;;0.30;0.30;;;;;;;;;;6250492;28;20022;-83
2023/03/09 05:20:11;;;;;;;0.87;0.87;;;;;;;;;;6242393;28;20013;-83
2023/03/09 05:23:11;;;;;;;2.78;2.67;;;;;;;;;;6253583;28;20029;-83
2023/03/09 05:26:11;;;;;;;1.70;1.03;;;;;;;;;;6237347;28;20048;-83
2023/03/09 05:29:11;;;;;;;1.83;1.73;;;;;;;;;;6236735;28;20084;-83
2023/03/09 05:32:13;;;;;;;0.47;0.47;;;;;;;;;;6243699;28;20031;-84
2023/03/09 05:35:13;;;;;;;2.33;1.42;;;;;;;;;;6247611;28;20045;-84
2023/03/09 05:38:13;;;;;;;5.50;5.13;;;;;;;;;;6257353;28;20490;-85
2023/03/09 05:41:14;;;;;;;3.67;2.60;;;;;;;;;;6249757;28;20017;-84
2023/03/09 05:44:14;;;;;;;0.17;0.17;;;;;;;;;;6245893;28;20458;-83
2023/03/09 05:47:15;;;;;;;1.40;1.30;;;;;;;;;;6243350;28;20026;-85
2023/03/09 05:50:15;;;;;;;4.10;3.65;;;;;;;;;;6247566;28;20075;-83
2023/03/09 05:53:17;;;;;;;4.77;4.37;;;;;;;;;;6254316;28;20014;-83
2023/03/09 05:56:17;;;;;;;2.58;2.28;;;;;;;;;;6256817;28;20021;-83
2023/03/09 05:59:19;;;;;;;0.97;0.97;;;;;;;;;;6251369;28;20555;-84
2023/03/09 06:02:19;;;;;;;0.60;0.60;;;;;;;;;;6241714;28;20076;-85
2023/03/09 06:05:19;;;;;;;3.80;3.60;;;;;;;;;;6227984;28;20022;-86
2023/03/09 06:08:20;;;;;;;3.40;2.23;;;;;;;;;;6240635;28;20450;-90
2023/03/09 06:11:21;;;;;;;2.07;1.97;;;;;;;;;;6261523;28;20083;-89
2023/03/09 06:14:21;;;;;;;3.17;3.03;;;;;;;;;;6258953;28;20059;-86
2023/03/09 06:17:21;;;;;;;1.90;1.80;;;;;;;;;;6225991;28;20097;-86
2023/03/09 06:20:21;;;;;;;1.60;1.60;;;;;;;;;;6246229;28;20109;-86
2023/03/09 06:23:22;;;;;;;3.27;3.07;;;;;;;;;;6240474;28;20056;-85
2023/03/09 06:26:22;;;;;;;0.55;0.55;;;;;;;;;;6210741;28;20472;-86
2023/03/09 06:29:22;;;;;;;0.97;0.93;;;;;;;;;;6219015;28;20041;-85
2023/03/09 06:32:23;;;;;;;0.93;0.93;;;;;;;;;;6245120;28;20033;-87
2023/03/09 06:35:24;;;;;;;1.67;1.60;;;;;;;;;;6244414;28;20388;-87
2023/03/09 06:38:24;;;;;;;1.70;1.60;;;;;;;;;;6233758;28;20029;-89
2023/03/09 06:41:31;;;;;;;0.63;0.63;;;;;;;;;;6255876;28;20017;-89
2023/03/09 06:44:31;;;;;;;1.65;1.55;;;;;;;;;;6248546;28;20032;-90
2023/03/09 06:47:32;;;;;;;1.92;1.83;;;;;;;;;;6262809;28;20041;-89
2023/03/09 06:50:32;;;;;;;1.60;1.50;;;;;;;;;;6245834;28;20018;-89
2023/03/09 06:53:33;;;;;;;1.73;1.67;;;;;;;;;;6259859;28;20056;-90
2023/03/09 06:56:33;;;;;;;1.92;1.50;;;;;;;;;;6260387;28;20014;-87
2023/03/09 06:59:34;;;;;;;7.63;3.50;;;;;;;;;;6271228;28;20040;-89
2023/03/09 07:02:34;;;;;;;2.87;2.70;;;;;;;;;;6259126;28;20026;-89
2023/03/09 07:05:34;;;;;;;5.93;3.43;;;;;;;;;;6244977;28;20617;-89
2023/03/09 07:08:35;;;;;;;6.30;5.78;;;;;;;;;;6270715;28;20061;-89
2023/03/09 07:11:35;;;;;;;4.60;3.40;;;;;;;;;;6245323;28;20526;-90
2023/03/09 07:14:35;;;;;;;2.50;2.33;;;;;;;;;;6250424;28;20022;-89
2023/03/09 07:17:36;;;;;;;10.37;2.77;;;;;;;;;;6243019;28;20041;-91
2023/03/09 07:20:39;;;;;;;3.40;2.67;;;;;;;;;;6262357;28;20033;-89
2023/03/09 07:23:40;;;;;;;3.00;2.47;;;;;;;;;;6267852;28;20009;-88
2023/03/09 07:26:41;;;;;;;3.03;2.83;;;;;;;;;;6278489;28;20050;-91
2023/03/09 07:29:42;;;;;;;;;;;;;;;;;;6271465;28;20048;-87
2023/03/09 07:32:42;;;;;;;1.77;1.67;;;;;;;;;;6264133;28;19905;-91
2023/03/09 07:35:42;;;;;;;1.20;1.20;;;;;;;;;;6256380;28;20028;-92
2023/03/09 07:38:42;;;;;;;4.90;2.03;;;;;;;;;;6271223;28;20018;-92
2023/03/09 07:41:42;;;;;;;5.27;3.10;;;;;;;;;;6278505;28;20021;-86
2023/03/09 07:44:43;;;;;;;3.27;3.00;;;;;;;;;;6274676;28;20021;-90
2023/03/09 07:47:43;;;;;;;6.07;5.50;;;;;;;;;;6277288;28;20024;-88
2023/03/09 07:50:43;;;;;;;2.03;1.93;;;;;;;;;;6273877;28;20037;-89
2023/03/09 07:53:43;;;;;;;4.50;4.07;;;;;;;;;;6256786;28;20023;-91
2023/03/09 07:56:47;;;;;;;1.97;1.53;;;;;;;;;;6271056;28;20029;-89
2023/03/09 07:59:47;;;;;;;1.58;1.50;;;;;;;;;;6274088;28;20080;-91
2023/03/09 08:02:47;;;;;;;2.60;2.05;;;;;;;;;;6267278;28;20164;-90
2023/03/09 08:05:47;;;;;;;1.47;1.37;;;;;;;;;;6269521;28;20013;-91
2023/03/09 08:08:48;;;;;;;3.47;1.47;;;;;;;;;;6264684;28;20045;-92
2023/03/09 08:11:48;;;;;;;1.00;0.97;;;;;;;;;;6245958;28;20018;-88
2023/03/09 08:14:49;;;;;;;2.37;2.27;;;;;;;;;;6229506;28;20030;-90
2023/03/09 08:17:49;;;;;;;13.70;3.73;;;;;;;;;;6258873;28;20048;-90
2023/03/09 08:20:49;;;;;;;1.47;1.37;;;;;;;;;;6244056;28;20052;-91
2023/03/09 08:23:50;;;;;;;3.30;3.00;;;;;;;;;;6262460;28;20071;-91
2023/03/09 08:26:51;;;;;;;4.95;1.85;;;;;;;;;;6251259;28;20569;-91
2023/03/09 08:29:51;;;;;;;2.87;2.63;;;;;;;;;;6246699;28;20462;-88
2023/03/09 08:32:52;;;;;;;2.90;2.70;;;;;;;;;;6262444;28;20014;-86
2023/03/09 08:35:52;;;;;;;1.03;1.03;;;;;;;;;;6271546;28;20091;-92
2023/03/09 08:38:53;;;;;;;1.65;1.55;;;;;;;;;;6283016;28;20100;-89
2023/03/09 08:41:55;;;;;;;1.93;1.77;;;;;;;;;;6290409;28;20001;-88
2023/03/09 08:44:55;;;;;;;3.28;2.30;;;;;;;;;;6277068;28;20013;-90
2023/03/09 08:47:55;;;;;;;5.73;2.67;;;;;;;;;;6260492;28;20089;-91
2023/03/09 08:50:56;;;;;;;1.03;1.03;;;;;;;;;;6270373;28;20308;-91
2023/03/09 08:53:56;;;;;;;1.92;1.77;;;;;;;;;;6267646;28;20056;-84
2023/03/09 08:56:57;;;;;;;5.47;3.50;;;;;;;;;;6293390;28;20009;-85
2023/03/09 08:59:57;;;;;;;2.43;1.40;;;;;;;;;;6287279;28;20017;-85
2023/03/09 09:02:58;;;;;;;8.13;7.63;;;;;;;;;;6282602;28;20025;-85
2023/03/09 09:06:10;;;;;;;6.25;5.78;;;;;;;;;;6277378;28;20435;-87
2023/03/09 09:09:10;;;;;;;7.57;6.30;;;;;;;;;;6262681;28;20061;-90
2023/03/09 09:12:11;;;;;;;3.53;3.28;;;;;;;;;;6250210;28;20017;-86
2023/03/09 09:15:13;;;;;;;2.27;2.10;;;;;;;;;;6259048;28;20082;-87
2023/03/09 09:18:14;;;;;;;4.25;2.97;;;;;;;;;;6256296;28;20032;-85
2023/03/09 09:21:15;;;;;;;6.10;4.70;;;;;;;;;;6254646;28;20079;-82
2023/03/09 09:24:15;;;;;;;4.13;3.30;;;;;;;;;;6260831;28;20057;-89
2023/03/09 09:27:16;;;;;;;3.13;2.92;;;;;;;;;;6253417;28;20132;-89
2023/03/09 09:30:17;;;;;;;4.43;3.13;;;;;;;;;;6232811;28;20034;-88
2023/03/09 09:33:17;;;;;;;2.67;2.53;;;;;;;;;;6250790;28;20025;-88
2023/03/09 09:36:19;;;;;;;5.87;3.73;;;;;;;;;;6244938;28;20020;-88
2023/03/09 09:39:19;;;;;;;5.00;3.63;;;;;;;;;;6238615;28;20056;-86
2023/03/09 09:42:24;;;;;;;1.83;1.73;;;;;;;;;;6231816;28;20369;-83
2023/03/09 09:45:24;;;;;;;1.73;1.63;;;;;;;;;;6255740;28;20513;-88
2023/03/09 09:48:25;;;;;;;1.30;1.30;;;;;;;;;;6247011;28;20057;-86
2023/03/09 09:51:49;;;;;;;5.73;3.87;;;;;;;;;;6251700;28;20059;-84
2023/03/09 09:54:55;;;;;;;2.65;2.20;;;;;;;;;;6247649;28;20033;-86
2023/03/09 09:58:14;;;;;;;1.48;1.38;;;;;;;;;;6237098;28;20048;-88
2023/03/09 10:01:27;;;;;;;3.22;2.47;;;;;;;;;;6239457;28;20029;-89
2023/03/09 10:04:30;;;;;;;0.43;0.43;;;;;;;;;;6230434;28;20067;-87
2023/03/09 10:07:31;;;;;;;3.28;2.97;;;;;;;;;;6222786;28;20026;-88
2023/03/09 10:10:31;;;;;;;1.73;1.63;;;;;;;;;;6231856;28;20053;-87
2023/03/09 10:13:39;;;;;;;5.03;4.63;;;;;;;;;;6236759;28;20392;-85
2023/03/09 10:16:42;;;;;;;4.13;3.42;;;;;;;;;;6211059;28;20026;-86
2023/03/09 10:19:46;;;;;;;2.17;2.08;;;;;;;;;;6238038;28;20025;-85
2023/03/09 10:22:47;;;;;;;1.55;1.52;;;;;;;;;;6236610;28;20024;-87
2023/03/09 10:25:50;;;;;;;0.95;0.95;;;;;;;;;;6239947;28;20480;-87
2023/03/09 10:28:52;;;;;;;6.45;2.58;;;;;;;;;;6234194;28;20402;-85
2023/03/09 10:32:02;;;;;;;0.65;0.65;;;;;;;;;;6242968;28;20017;-84
2023/03/09 10:35:20;;;;;;;1.13;1.10;;;;;;;;;;6240953;28;20017;-84
2023/03/09 10:38:23;;;;;;;2.40;2.30;;;;;;;;;;6234965;28;20051;-85
2023/03/09 10:41:23;;;;;;;1.48;1.42;;;;;;;;;;6243364;28;20030;-86
2023/03/09 10:44:24;;;;;;;1.23;1.13;;;;;;;;;;6240953;28;20464;-86
2023/03/09 10:47:25;;;;;;;0.43;0.43;;;;;;;;;;6241264;28;20113;-86
2023/03/09 10:50:29;;;;;;;2.27;1.53;;;;;;;;;;6238021;28;20464;-89
2023/03/09 10:53:37;;;;;;;5.38;3.35;;;;;;;;;;6227090;28;20403;-89
2023/03/09 10:56:42;;;;;;;2.72;2.30;;;;;;;;;;6236314;28;20025;-87
2023/03/09 10:59:53;;;;;;;2.30;2.00;;;;;;;;;;6249344;28;20025;-88
2023/03/09 11:03:01;;;;;;;3.13;2.70;;;;;;;;;;6247336;28;20022;-87
2023/03/09 11:06:24;;;;;;;5.93;4.57;;;;;;;;;;6256699;28;20395;-85
2023/03/09 11:09:54;;;;;;;3.47;3.22;;;;;;;;;;6237337;28;20046;-85
2023/03/09 11:12:55;;;;;;;3.38;1.90;;;;;;;;;;6213645;28;20030;-86
2023/03/09 11:16:06;;;;;;;1.33;1.10;;;;;;;;;;6246949;28;20017;-86
2023/03/09 11:19:14;;;;;;;2.30;2.13;;;;;;;;;;6242752;28;20026;-87
2023/03/09 11:22:14;;;;;;;2.92;1.58;;;;;;;;;;6233630;28;20543;-85
2023/03/09 11:25:24;;;;;;;3.27;2.97;;;;;;;;;;6242005;28;20104;-86
2023/03/09 11:28:43;;;;;;;4.85;2.35;;;;;;;;;;6238429;28;20391;-86
2023/03/09 11:31:44;;;;;;;1.15;1.15;;;;;;;;;;6243103;28;20033;-84
2023/03/09 11:34:45;;;;;;;1.13;1.10;;;;;;;;;;6234481;28;20476;-84
2023/03/09 11:37:47;;;;;;;2.30;2.10;;;;;;;;;;6241081;28;20045;-86
2023/03/09 11:40:49;;;;;;;2.35;2.25;;;;;;;;;;6240994;28;20476;-85
2023/03/09 11:43:55;;;;;;;3.05;2.85;;;;;;;;;;6233279;28;20014;-86
2023/03/09 11:46:57;;;;;;;2.63;2.53;;;;;;;;;;6230380;28;20035;-85
2023/03/09 11:50:01;;;;;;;2.05;1.95;;;;;;;;;;6230351;28;20030;-85
2023/03/09 11:53:04;;;;;;;8.30;2.53;;;;;;;;;;6230778;28;20013;-83
2023/03/09 11:56:16;;;;;;;3.83;3.47;;;;;;;;;;6242063;28;20561;-83
2023/03/09 11:59:29;;;;;;;0.85;0.85;;;;;;;;;;6237751;28;20040;-83
2023/03/09 12:02:49;;;;;;;1.80;1.70;;;;;;;;;;6242536;28;20036;-83
2023/03/09 12:05:52;;;;;;;1.35;1.27;;;;;;;;;;6249312;28;20025;-84
2023/03/09 12:08:53;;;;;;;0.75;0.75;;;;;;;;;;6249315;28;20132;-83
2023/03/09 12:11:56;;;;;;;3.83;2.77;;;;;;;;;;6230552;28;20036;-83
2023/03/09 12:15:17;;;;;;;0.88;0.88;;;;;;;;;;6237579;28;20777;-84
2023/03/09 12:18:30;;;;;;;0.40;0.40;;;;;;;;;;6242150;28;20410;-84
2023/03/09 12:21:32;;;;;;;1.25;1.25;;;;;;;;;;6226312;28;20031;-84
2023/03/09 12:24:32;;;;;;;0.95;0.93;;;;;;;;;;6239701;28;20029;-86
2023/03/09 12:27:34;;;;;;;2.83;2.63;;;;;;;;;;6234818;28;20395;-86
2023/03/09 12:30:42;;;;;;;2.85;2.67;;;;;;;;;;6239543;28;20017;-89
2023/03/09 12:33:45;;;;;;;3.97;3.75;;;;;;;;;;6243353;28;20041;-86
2023/03/09 12:36:46;;;;;;;1.17;1.17;;;;;;;;;;6225488;28;20088;-89
2023/03/09 12:39:47;;;;;;;2.90;2.60;;;;;;;;;;6238116;28;20041;-91
2023/03/09 12:42:48;;;;;;;4.00;3.70;;;;;;;;;;6254898;28;20393;-88
2023/03/09 12:45:49;;;;;;;7.13;2.90;;;;;;;;;;6245581;28;20033;-86
2023/03/09 12:48:49;;;;;;;4.20;3.30;;;;;;;;;;6240598;28;20025;-87
2023/03/09 12:51:56;;;;;;;3.20;2.90;;;;;;;;;;6241560;28;20556;-88
2023/03/09 12:54:58;;;;;;;0.82;0.82;;;;;;;;;;6244278;28;20020;-88
2023/03/09 12:58:17;;;;;;;8.25;4.50;;;;;;;;;;6227714;28;20438;-87
2023/03/09 13:01:17;;;;;;;14.88;4.18;;;;;;;;;;6240345;28;20152;-87
2023/03/09 13:04:20;;;;;;;2.28;1.58;;;;;;;;;;6248965;28;20029;-88
2023/03/09 13:07:20;;;;;;;2.92;2.72;;;;;;;;;;6252769;28;20476;-87
2023/03/09 13:10:38;;;;;;;5.33;2.50;;;;;;;;;;6249833;28;20133;-87
2023/03/09 13:13:41;;;;;;;2.95;2.70;;;;;;;;;;6235322;28;20384;-85
2023/03/09 13:16:44;;;;;;;4.47;1.85;;;;;;;;;;6239265;28;20021;-85
2023/03/09 13:19:54;;;;;;;7.90;2.60;;;;;;;;;;6248410;28;20124;-83
2023/03/09 13:22:57;;;;;;;4.57;4.15;;;;;;;;;;6242283;28;20484;-81
2023/03/09 13:25:57;;;;;;;1.13;1.02;;;;;;;;;;6230404;28;20712;-84
2023/03/09 13:28:57;;;;;;;6.23;2.70;;;;;;;;;;6234529;28;20129;-84
2023/03/09 13:31:58;;;;;;;5.83;3.77;;;;;;;;;;6233573;28;20025;-85
2023/03/09 13:34:59;;;;;;;1.83;1.73;;;;;;;;;;6228125;28;20460;-84
2023/03/09 13:38:00;;;;;;;1.65;1.55;;;;;;;;;;6239502;28;20511;-85
2023/03/09 13:41:02;;;;;;;1.50;1.17;;;;;;;;;;6250720;28;20022;-85
2023/03/09 13:44:03;;;;;;;;;;;;;;;;;;6257555;28;20052;-83
2023/03/09 13:47:05;;;;;;;1.30;1.30;;;;;;;;;;6247339;28;19905;-84
2023/03/09 13:50:05;;;;;;;2.55;2.35;;;;;;;;;;6244782;28;20139;-84
2023/03/09 13:53:14;;;;;;;2.43;2.33;;;;;;;;;;6244837;28;20112;-84
2023/03/09 13:56:15;;;;;;;4.82;1.67;;;;;;;;;;6242431;28;20067;-85
2023/03/09 13:59:16;;;;;;;2.80;2.60;;;;;;;;;;6239287;28;20025;-84
2023/03/09 14:02:16;;;;;;;3.25;2.75;;;;;;;;;;6247908;28;20265;-84
2023/03/09 14:05:18;;;;;;;2.57;2.37;;;;;;;;;;6238583;28;20106;-85
2023/03/09 14:08:18;;;;;;;;;;;;;;;;;;6235467;28;20058;-84
2023/03/09 14:11:25;;;;;;;1.70;1.47;;;;;;;;;;6251935;28;19917;-83
2023/03/09 14:14:27;;;;;;;4.90;4.53;;;;;;;;;;6251974;28;20272;-83
2023/03/09 14:17:29;;;;;;;2.17;2.08;;;;;;;;;;6242164;28;20017;-83
2023/03/09 14:20:37;;;;;;;2.75;2.13;;;;;;;;;;6256506;28;20141;-83
2023/03/09 14:23:39;;;;;;;1.63;1.27;;;;;;;;;;6241908;28;20025;-84
2023/03/09 14:26:39;;;;;;;3.58;2.95;;;;;;;;;;6241904;28;20405;-83
2023/03/09 14:29:40;;;;;;;0.83;0.83;;;;;;;;;;6248765;28;20028;-83
2023/03/09 14:32:55;;;;;;;3.90;3.53;;;;;;;;;;6245467;28;20021;-83
2023/03/09 14:36:15;;;;;;;5.63;4.65;;;;;;;;;;6246961;28;20468;-83
2023/03/09 14:39:21;;;;;;;2.03;1.92;;;;;;;;;;6246183;28;20317;-83
2023/03/09 14:42:26;;;;;;;2.50;2.25;;;;;;;;;;6253107;28;20570;-83
2023/03/09 14:45:26;;;;;;;2.00;1.92;;;;;;;;;;6253359;28;20927;-83
2023/03/09 14:48:26;;;;;;;1.13;1.13;;;;;;;;;;6252644;28;20029;-83
2023/03/09 14:51:28;;;;;;;6.32;2.85;;;;;;;;;;6249484;28;20064;-83
2023/03/09 14:54:29;;;;;;;1.65;1.58;;;;;;;;;;6245977;28;20032;-84
2023/03/09 14:57:29;;;;;;;0.50;0.50;;;;;;;;;;6248845;28;20297;-83
2023/03/09 15:00:30;;;;;;;1.80;1.48;;;;;;;;;;6235078;28;20493;-82
2023/03/09 15:03:30;;;;;;;1.10;1.07;;;;;;;;;;6248056;28;20377;-82
2023/03/09 15:06:31;;;;;;;3.40;1.52;;;;;;;;;;6251462;28;20010;-82
2023/03/09 15:09:31;;;;;;;1.13;1.03;;;;;;;;;;6253852;28;20484;-82
2023/03/09 15:12:32;;;;;;;1.30;1.30;;;;;;;;;;6263071;28;20447;-80
2023/03/09 15:15:33;;;;;;;1.20;1.20;;;;;;;;;;6264738;28;20024;-81
2023/03/09 15:18:33;;;;;;;2.27;1.80;;;;;;;;;;6252762;28;20480;-80
2023/03/09 15:21:33;;;;;;;1.60;1.52;;;;;;;;;;6248020;28;20155;-80
2023/03/09 15:24:33;;;;;;;1.60;1.60;;;;;;;;;;6248267;28;20468;-80
2023/03/09 15:27:34;;;;;;;2.73;2.47;;;;;;;;;;6236321;28;20043;-80
2023/03/09 15:30:34;;;;;;;1.73;1.63;;;;;;;;;;6241586;28;20036;-81
2023/03/09 15:33:35;;;;;;;0.83;0.83;;;;;;;;;;6250482;28;20468;-80
2023/03/09 15:36:35;;;;;;;2.00;1.90;;;;;;;;;;6245989;28;20375;-80
2023/03/09 15:39:35;;;;;;;4.97;4.53;;;;;;;;;;6249361;28;20033;-80
2023/03/09 15:42:40;;;;;;;0.70;0.70;;;;;;;;;;6259182;28;20032;-80
2023/03/09 15:45:41;;;;;;;3.13;2.15;;;;;;;;;;6265473;28;20402;-80
2023/03/09 15:48:43;;;;;;;1.93;1.83;;;;;;;;;;6260234;28;20022;-79
2023/03/09 15:51:43;;;;;;;2.67;2.47;;;;;;;;;;6261328;28;20043;-80
2023/03/09 15:54:43;;;;;;;2.73;2.10;;;;;;;;;;6257344;28;20021;-80
2023/03/09 15:57:43;;;;;;;1.58;1.48;;;;;;;;;;6249486;28;20439;-81
2023/03/09 16:00:43;;;;;;;4.10;3.90;;;;;;;;;;6261151;28;20024;-80
2023/03/09 16:03:45;;;;;;;2.00;1.90;;;;;;;;;;6268796;28;20386;-81
2023/03/09 16:06:45;;;;;;;3.15;2.88;;;;;;;;;;6244130;28;20049;-81
2023/03/09 16:09:45;;;;;;;3.20;2.97;;;;;;;;;;6257530;28;20071;-80
2023/03/09 16:12:46;;;;;;;2.00;1.90;;;;;;;;;;6265635;28;20041;-80
2023/03/09 16:15:47;;;;;;;2.50;2.40;;;;;;;;;;6254916;28;20383;-80
2023/03/09 16:18:47;;;;;;;2.53;1.73;;;;;;;;;;6233596;28;20264;-80
2023/03/09 16:21:47;;;;;;;1.27;1.27;;;;;;;;;;6257357;28;20060;-81
2023/03/09 16:24:48;;;;;;;3.23;3.00;;;;;;;;;;6244232;28;20071;-80
2023/03/09 16:27:48;;;;;;;3.88;2.63;;;;;;;;;;6237399;28;20411;-80
2023/03/09 16:30:48;;;;;;;2.37;2.23;;;;;;;;;;6259670;28;20014;-81
2023/03/09 16:33:50;;;;;;;2.27;2.17;;;;;;;;;;6260644;28;20028;-80
2023/03/09 16:36:50;;;;;;;1.35;1.35;;;;;;;;;;6240064;28;20096;-81
2023/03/09 16:39:52;;;;;;;5.60;3.30;;;;;;;;;;6256168;28;20927;-80
2023/03/09 16:42:52;;;;;;;1.65;1.55;;;;;;;;;;6262278;28;20450;-80
2023/03/09 16:45:54;;;;;;;5.70;2.50;;;;;;;;;;6258783;28;20039;-79
2023/03/09 16:48:56;;;;;;;2.30;2.17;;;;;;;;;;6266996;28;20032;-80
2023/03/09 16:51:58;;;;;;;4.47;2.78;;;;;;;;;;6259208;28;20379;-80
2023/03/09 16:55:02;;;;;;;1.38;1.38;;;;;;;;;;6235289;28;20022;-81
2023/03/09 16:58:02;;;;;;;5.85;3.42;;;;;;;;;;6260529;28;20032;-80
2023/03/09 17:01:10;;;;;;;3.53;3.03;;;;;;;;;;6258189;28;20082;-80
2023/03/09 17:04:10;;;;;;;2.70;2.50;;;;;;;;;;6260201;28;20032;-80
2023/03/09 17:07:10;;;;;;;0.87;0.87;;;;;;;;;;6260883;28;20021;-81
2023/03/09 17:10:13;;;;;;;3.20;3.03;;;;;;;;;;6260933;28;20076;-81
2023/03/09 17:13:14;;;;;;;3.25;3.00;;;;;;;;;;6264833;28;20036;-79
2023/03/09 17:16:15;;;;;;;4.20;1.80;;;;;;;;;;6267824;28;20053;-79
2023/03/09 17:19:16;;;;;;;1.23;1.23;;;;;;;;;;6266828;28;20509;-79
2023/03/09 17:22:16;;;;;;;1.90;1.80;;;;;;;;;;6231624;28;20507;-80
2023/03/09 17:25:17;;;;;;;1.93;1.83;;;;;;;;;;6251905;28;20021;-80
2023/03/09 17:28:18;;;;;;;2.53;2.42;;;;;;;;;;6235192;28;20036;-79
2023/03/09 17:31:19;;;;;;;3.60;3.33;;;;;;;;;;6258799;28;20033;-79
2023/03/09 17:34:19;;;;;;;4.75;2.00;;;;;;;;;;6231520;28;20104;-80
2023/03/09 17:37:19;;;;;;;1.37;1.37;;;;;;;;;;6250657;28;20022;-81
2023/03/09 17:40:20;;;;;;;6.28;5.63;;;;;;;;;;6238352;28;20535;-80
2023/03/09 17:43:20;;;;;;;2.50;2.13;;;;;;;;;;6247425;28;20028;-81
2023/03/09 17:46:20;;;;;;;10.23;6.07;;;;;;;;;;6246139;28;20029;-81
2023/03/09 17:49:22;;;;;;;1.93;1.80;;;;;;;;;;6239931;28;20035;-80
2023/03/09 17:52:23;;;;;;;2.78;2.55;;;;;;;;;;6240101;28;20013;-81
2023/03/09 17:55:23;;;;;;;3.17;3.03;;;;;;;;;;6238574;28;20037;-80
2023/03/09 17:58:23;;;;;;;5.90;5.07;;;;;;;;;;6259386;28;20055;-80
2023/03/09 18:01:25;;;;;;;2.73;2.60;;;;;;;;;;6263923;28;20048;-80
2023/03/09 18:04:25;;;;;;;2.97;2.78;;;;;;;;;;6250952;28;20123;-81
2023/03/09 18:07:26;;;;;;;1.65;1.63;;;;;;;;;;6247767;28;20025;-81
2023/03/09 18:10:27;;;;;;;6.00;3.30;;;;;;;;;;6251101;28;20103;-80
2023/03/09 18:13:27;;;;;;;1.87;1.80;;;;;;;;;;6247044;28;20020;-81
2023/03/09 18:16:27;;;;;;;1.67;1.58;;;;;;;;;;6260079;28;20486;-80
2023/03/09 18:19:27;;;;;;;2.57;2.37;;;;;;;;;;6244770;28;20529;-81
2023/03/09 18:22:28;;;;;;;3.50;3.20;;;;;;;;;;6228747;28;20084;-81
2023/03/09 18:25:28;;;;;;;11.33;3.37;;;;;;;;;;6240651;28;20442;-83
2023/03/09 18:28:28;;;;;;;6.97;6.47;;;;;;;;;;6237821;28;20517;-82
2023/03/09 18:31:30;;;;;;;7.47;6.80;;;;;;;;;;6238539;28;20404;-81
2023/03/09 18:34:30;;;;;;;8.65;7.65;;;;;;;;;;6242133;28;20005;-80
2023/03/09 18:37:31;;;;;;;7.73;7.13;;;;;;;;;;6248680;28;20038;-80
2023/03/09 18:40:31;;;;;;;9.38;8.23;;;;;;;;;;6230858;28;20439;-81
2023/03/09 18:43:31;;;;;;;7.83;7.03;;;;;;;;;;6252233;28;20021;-81
2023/03/09 18:46:32;;;;;;;6.30;5.85;;;;;;;;;;6250425;28;20013;-81
2023/03/09 18:49:32;;;;;;;8.77;7.93;;;;;;;;;;6250712;28;20022;-81
2023/03/09 18:52:32;;;;;;;6.70;6.10;;;;;;;;;;6241847;28;20052;-81